Harbor View, Ohio
Current Conditions -  °F | °C
As of 11:53 PM on Saturday 25 Oct 2014 (Local Time) from KTDZ Reporting Station
Clear Clear  
Wind Chill: 50°   Ceiling: Unl
Heat Index: 50°   Visibility: 10mi
Dew Point: 33°   Wind: 10mph
Humidity: 52%   Direction: 270°W
Pressure: 29.86"   Gusts: NA
Location:  41.69°N, 83.44°W
Report Text: KTDZ 260353Z AUTO 27009KT 10SM CLR 10/01 A2986 RMK AO2 SLP110 T01000006 TSNO
Loading
Personal Weather Stations






























Interactive Weather Map
Tropical Storm Tracking
New forecast layout! Learn more

10-Day Weather Forecast

Advertisements
Track Severe Weather on mobile